»·PEaware :: GTH114 KONT-KSBA

GTH114 :: KONT-KSBA

FLIGHT INFORMATION

Flight Status: Arrived
Operator: Unknown
More flights by this operator :: More flights under this callsign
Pilot: Peter M. (9586)
Aircraft: DEHAVILLAND DASH 8 400
(DH8D)
More flights by this aircraft type
Origin: KONT Ontario Intl
United States
Destination: KSBA Santa Barbara Mun
United States
More flights between these airports :: More routes between these airports
Route: +PDZ V197 POM V264 ITSME V186 DEANO V27 KWANG
File this flight plan on PilotEdge
Remarks: TEC ROUTE ONTP17
Altitude:
(Current/Filed)
8,000ft
Speed:
(Current/Filed)
250kts
Departed: 09-Mar-19 09:19 AM
Arrived: 09-Mar-19 09:53 AM
Distance/Time
Traveled:
114nm/0:33
Distance/Time
To Go:
Arrived

Flight Plot

Page will automatically refresh every two minutes.


Map Options




Map Legend


Flown Route
Filed Route
Departure Airport
Arrival Airport
Navaid (VOR, NDB)
Fix

Horizontal Profiles

Position Reports

Time Latitude Longitude Heading Altitude Ground
Speed
09-Mar-19 09:00 34.049059 -117.581875 178 951ft 0kts
09-Mar-19 09:01 34.049059 -117.581875 178 951ft 0kts
09-Mar-19 09:02 34.049059 -117.581875 178 951ft 0kts
09-Mar-19 09:03 34.049059 -117.581875 178 951ft 0kts
09-Mar-19 09:04 34.049059 -117.581875 178 951ft 0kts
09-Mar-19 09:05 34.049059 -117.581875 178 951ft 0kts
09-Mar-19 09:06 34.049059 -117.581875 178 951ft 0kts
09-Mar-19 09:07 34.049059 -117.581875 178 951ft 0kts
09-Mar-19 09:08 34.049059 -117.581875 178 951ft 0kts
09-Mar-19 09:09 34.049059 -117.581875 178 951ft 0kts
09-Mar-19 09:10 34.049059 -117.581875 178 951ft 0kts
09-Mar-19 09:11 34.049059 -117.581875 178 951ft 0kts
09-Mar-19 09:13 34.049059 -117.581875 178 951ft 0kts
09-Mar-19 09:14 34.049059 -117.581875 178 951ft 0kts
09-Mar-19 09:15 34.049059 -117.581875 178 951ft 0kts
09-Mar-19 09:16 34.051013 -117.581901 19 951ft 12kts
09-Mar-19 09:17 34.053581 -117.582684 359 951ft 9kts
09-Mar-19 09:18 34.054101 -117.582696 358 951ft 0kts
09-Mar-19 09:19 34.054918 -117.586987 268 951ft 85kts
09-Mar-19 09:20 34.055119 -117.641516 269 2248ft 198kts
09-Mar-19 09:21 34.057751 -117.716838 270 3676ft 243kts
09-Mar-19 09:22 34.060890 -117.800269 272 5064ft 255kts
09-Mar-19 09:23 34.063478 -117.885059 272 6466ft 253kts
09-Mar-19 09:24 34.065671 -117.970255 270 7889ft 255kts
09-Mar-19 09:25 34.066334 -118.058190 269 8131ft 284kts
09-Mar-19 09:26 34.078801 -118.140032 294 8126ft 245kts
09-Mar-19 09:27 34.105456 -118.203447 293 8175ft 235kts
09-Mar-19 09:28 34.137896 -118.281574 296 8081ft 268kts
09-Mar-19 09:29 34.153503 -118.341498 277 8097ft 217kts
09-Mar-19 09:30 34.161174 -118.398508 277 8126ft 211kts
09-Mar-19 09:31 34.171152 -118.471456 278 8074ft 241kts
09-Mar-19 09:31 34.180307 -118.538587 277 8125ft 252kts
09-Mar-19 09:32 34.191617 -118.621199 279 8081ft 243kts
09-Mar-19 09:34 34.204129 -118.713712 281 8108ft 239kts
09-Mar-19 09:34 34.213087 -118.780009 276 8111ft 244kts
09-Mar-19 09:35 34.223902 -118.860518 278 8116ft 241kts
09-Mar-19 09:36 34.234493 -118.940394 279 6721ft 235kts
09-Mar-19 09:38 34.246087 -119.027969 278 6121ft 212kts
09-Mar-19 09:38 34.253788 -119.086500 278 6125ft 221kts
09-Mar-19 09:39 34.262936 -119.156791 278 6122ft 226kts
09-Mar-19 09:40 34.272875 -119.233385 278 6115ft 253kts
09-Mar-19 09:41 34.282611 -119.309014 278 6098ft 209kts
09-Mar-19 09:42 34.291324 -119.376207 279 6115ft 196kts
09-Mar-19 09:43 34.299651 -119.441735 279 4826ft 189kts
09-Mar-19 09:44 34.307510 -119.502628 281 4130ft 178kts
09-Mar-19 09:45 34.324367 -119.557406 292 3333ft 204kts
09-Mar-19 09:46 34.342564 -119.613750 292 3109ft 163kts
09-Mar-19 09:47 34.357539 -119.659745 297 3138ft 131kts
09-Mar-19 09:48 34.378420 -119.701736 304 2514ft 152kts
09-Mar-19 09:49 34.400416 -119.741149 298 1945ft 141kts
09-Mar-19 09:50 34.422114 -119.783371 303 1453ft 153kts
09-Mar-19 09:51 34.427930 -119.831980 270 135ft 143kts
09-Mar-19 09:52 34.426448 -119.851234 100 17ft 4kts

Navigation Log

Ident Type
Flight plan parsing failed, navigation log unavailable